sensor_id;sensor_type;location;lat;lon;timestamp;pressure;altitude;pressure_sealevel;temperature;humidity
35419;BME280;21525;41.240;16.500;2023-09-12T00:01:30;101231.44;;;28.54;45.71
35419;BME280;21525;41.240;16.500;2023-09-12T00:03:59;101229.13;;;28.50;45.68
35419;BME280;21525;41.240;16.500;2023-09-12T00:06:24;101232.53;;;28.29;46.34
35419;BME280;21525;41.240;16.500;2023-09-12T00:08:51;101238.63;;;28.42;46.01
35419;BME280;21525;41.240;16.500;2023-09-12T00:11:17;101226.81;;;28.34;46.13
35419;BME280;21525;41.240;16.500;2023-09-12T00:13:44;101226.16;;;28.64;45.84
35419;BME280;21525;41.240;16.500;2023-09-12T00:16:10;101233.38;;;28.52;45.23
35419;BME280;21525;41.240;16.500;2023-09-12T00:18:39;101228.28;;;28.38;45.75
35419;BME280;21525;41.240;16.500;2023-09-12T00:21:05;101227.31;;;28.39;45.37
35419;BME280;21525;41.240;16.500;2023-09-12T00:23:31;101233.47;;;28.17;45.68
35419;BME280;21525;41.240;16.500;2023-09-12T00:25:57;101226.31;;;28.29;45.98
35419;BME280;21525;41.240;16.500;2023-09-12T00:28:23;101232.91;;;28.47;44.99
35419;BME280;21525;41.240;16.500;2023-09-12T00:30:51;101223.28;;;28.45;44.68
35419;BME280;21525;41.240;16.500;2023-09-12T00:33:17;101227.91;;;28.31;45.33
35419;BME280;21525;41.240;16.500;2023-09-12T00:35:44;101218.41;;;28.27;45.56
35419;BME280;21525;41.240;16.500;2023-09-12T00:38:10;101221.22;;;28.37;45.84
35419;BME280;21525;41.240;16.500;2023-09-12T00:40:36;101225.19;;;28.76;45.17
35419;BME280;21525;41.240;16.500;2023-09-12T00:43:03;101220.69;;;28.76;44.96
35419;BME280;21525;41.240;16.500;2023-09-12T00:45:29;101217.78;;;28.68;45.43
35419;BME280;21525;41.240;16.500;2023-09-12T00:47:55;101211.59;;;29.11;44.92
35419;BME280;21525;41.240;16.500;2023-09-12T00:50:24;101219.84;;;28.76;45.52
35419;BME280;21525;41.240;16.500;2023-09-12T00:52:51;101214.38;;;28.66;45.31
35419;BME280;21525;41.240;16.500;2023-09-12T00:55:18;101210.28;;;28.51;45.89
35419;BME280;21525;41.240;16.500;2023-09-12T00:57:45;101220.50;;;28.57;45.40
35419;BME280;21525;41.240;16.500;2023-09-12T01:00:13;101217.56;;;28.38;45.72
35419;BME280;21525;41.240;16.500;2023-09-12T01:02:41;101224.25;;;28.43;45.51
35419;BME280;21525;41.240;16.500;2023-09-12T01:05:09;101209.78;;;28.46;45.01
35419;BME280;21525;41.240;16.500;2023-09-12T01:07:36;101212.81;;;28.41;45.66
35419;BME280;21525;41.240;16.500;2023-09-12T01:10:03;101214.78;;;28.51;45.29
35419;BME280;21525;41.240;16.500;2023-09-12T01:12:29;101207.56;;;28.62;45.33
35419;BME280;21525;41.240;16.500;2023-09-12T01:14:55;101211.56;;;28.68;44.96
35419;BME280;21525;41.240;16.500;2023-09-12T01:17:22;101210.03;;;28.54;44.94
35419;BME280;21525;41.240;16.500;2023-09-12T01:19:48;101210.28;;;28.51;44.87
35419;BME280;21525;41.240;16.500;2023-09-12T01:23:20;101210.28;;;28.40;44.85
35419;BME280;21525;41.240;16.500;2023-09-12T01:25:34;101213.31;;;28.35;44.56
35419;BME280;21525;41.240;16.500;2023-09-12T01:28:05;101219.03;;;28.31;44.37
35419;BME280;21525;41.240;16.500;2023-09-12T01:30:34;101226.09;;;28.21;44.70
35419;BME280;21525;41.240;16.500;2023-09-12T01:33:01;101217.78;;;28.01;45.47
35419;BME280;21525;41.240;16.500;2023-09-12T01:35:27;101222.16;;;28.02;45.54
35419;BME280;21525;41.240;16.500;2023-09-12T01:37:54;101226.75;;;28.00;45.70
35419;BME280;21525;41.240;16.500;2023-09-12T01:40:31;101227.78;;;28.33;44.98
35419;BME280;21525;41.240;16.500;2023-09-12T01:43:00;101227.16;;;28.18;45.68
35419;BME280;21525;41.240;16.500;2023-09-12T01:45:26;101221.28;;;28.02;45.92
35419;BME280;21525;41.240;16.500;2023-09-12T01:47:53;101223.34;;;27.87;46.43
35419;BME280;21525;41.240;16.500;2023-09-12T01:50:20;101221.88;;;27.94;45.88
35419;BME280;21525;41.240;16.500;2023-09-12T01:52:46;101216.81;;;27.91;45.94
35419;BME280;21525;41.240;16.500;2023-09-12T01:55:13;101221.28;;;28.02;45.52
35419;BME280;21525;41.240;16.500;2023-09-12T01:57:40;101219.59;;;27.90;45.10
35419;BME280;21525;41.240;16.500;2023-09-12T02:00:07;101218.88;;;28.10;44.86
35419;BME280;21525;41.240;16.500;2023-09-12T02:02:34;101220.94;;;28.06;44.92
35419;BME280;21525;41.240;16.500;2023-09-12T02:05:13;101218.06;;;28.21;45.16
35419;BME280;21525;41.240;16.500;2023-09-12T02:07:41;101225.72;;;28.36;44.91
35419;BME280;21525;41.240;16.500;2023-09-12T02:10:07;101218.28;;;28.18;45.15
35419;BME280;21525;41.240;16.500;2023-09-12T02:12:33;101217.16;;;27.98;45.20
35419;BME280;21525;41.240;16.500;2023-09-12T02:14:59;101220.22;;;27.93;45.53
35419;BME280;21525;41.240;16.500;2023-09-12T02:17:25;101221.31;;;28.13;45.17
35419;BME280;21525;41.240;16.500;2023-09-12T02:19:50;101221.94;;;28.17;45.00
35419;BME280;21525;41.240;16.500;2023-09-12T02:22:16;101222.66;;;28.19;44.40
35419;BME280;21525;41.240;16.500;2023-09-12T02:24:42;101216.41;;;27.96;44.65
35419;BME280;21525;41.240;16.500;2023-09-12T02:27:08;101218.38;;;28.05;44.76
35419;BME280;21525;41.240;16.500;2023-09-12T02:29:34;101220.47;;;28.13;44.51
35419;BME280;21525;41.240;16.500;2023-09-12T02:32:00;101214.31;;;28.23;43.98
35419;BME280;21525;41.240;16.500;2023-09-12T02:34:26;101223.09;;;27.79;44.76
35419;BME280;21525;41.240;16.500;2023-09-12T02:36:51;101216.41;;;27.73;44.57
35419;BME280;21525;41.240;16.500;2023-09-12T02:39:17;101218.38;;;27.83;44.63
35419;BME280;21525;41.240;16.500;2023-09-12T02:41:43;101224.34;;;27.86;45.26
35419;BME280;21525;41.240;16.500;2023-09-12T02:44:09;101214.53;;;27.63;45.42
35419;BME280;21525;41.240;16.500;2023-09-12T02:46:36;101221.84;;;27.61;45.45
35419;BME280;21525;41.240;16.500;2023-09-12T02:49:02;101230.28;;;27.20;45.55
35419;BME280;21525;41.240;16.500;2023-09-12T02:51:28;101223.53;;;27.27;45.28
35419;BME280;21525;41.240;16.500;2023-09-12T02:53:54;101234.19;;;27.03;45.81
35419;BME280;21525;41.240;16.500;2023-09-12T02:56:20;101236.97;;;27.01;45.75
35419;BME280;21525;41.240;16.500;2023-09-12T02:58:46;101232.38;;;27.03;45.75
35419;BME280;21525;41.240;16.500;2023-09-12T03:01:16;101235.97;;;27.15;45.66
35419;BME280;21525;41.240;16.500;2023-09-12T03:03:42;101227.69;;;26.94;45.72
35419;BME280;21525;41.240;16.500;2023-09-12T03:06:09;101226.47;;;27.11;45.42
35419;BME280;21525;41.240;16.500;2023-09-12T03:08:35;101229.59;;;27.05;45.28
35419;BME280;21525;41.240;16.500;2023-09-12T03:11:01;101227.84;;;27.17;45.00
35419;BME280;21525;41.240;16.500;2023-09-12T03:13:29;101236.28;;;27.10;44.88
35419;BME280;21525;41.240;16.500;2023-09-12T03:15:54;101235.44;;;27.10;45.34
35419;BME280;21525;41.240;16.500;2023-09-12T03:18:20;101238.50;;;26.93;45.66
35419;BME280;21525;41.240;16.500;2023-09-12T03:20:46;101229.88;;;27.13;44.82
35419;BME280;21525;41.240;16.500;2023-09-12T03:23:11;101231.00;;;26.98;45.21
35419;BME280;21525;41.240;16.500;2023-09-12T03:25:38;101230.16;;;26.97;45.29
35419;BME280;21525;41.240;16.500;2023-09-12T03:28:05;101223.63;;;27.25;45.09
35419;BME280;21525;41.240;16.500;2023-09-12T03:30:35;101219.25;;;27.00;45.20
35419;BME280;21525;41.240;16.500;2023-09-12T03:33:02;101222.22;;;27.08;45.50
35419;BME280;21525;41.240;16.500;2023-09-12T03:35:28;101219.06;;;27.38;45.09
35419;BME280;21525;41.240;16.500;2023-09-12T03:37:54;101221.84;;;27.37;44.93
35419;BME280;21525;41.240;16.500;2023-09-12T03:40:20;101224.78;;;27.45;44.95
35419;BME280;21525;41.240;16.500;2023-09-12T03:42:46;101226.66;;;27.56;44.35
35419;BME280;21525;41.240;16.500;2023-09-12T03:45:14;101219.59;;;27.55;44.46
35419;BME280;21525;41.240;16.500;2023-09-12T03:47:40;101221.84;;;27.72;44.37
35419;BME280;21525;41.240;16.500;2023-09-12T03:50:06;101222.81;;;27.60;44.58
35419;BME280;21525;41.240;16.500;2023-09-12T03:52:32;101224.91;;;27.79;44.05
35419;BME280;21525;41.240;16.500;2023-09-12T03:54:57;101218.09;;;27.74;44.12
35419;BME280;21525;41.240;16.500;2023-09-12T03:57:26;101221.47;;;27.65;44.51
35419;BME280;21525;41.240;16.500;2023-09-12T03:59:52;101226.19;;;27.62;44.74
35419;BME280;21525;41.240;16.500;2023-09-12T04:02:18;101224.88;;;27.67;44.79
35419;BME280;21525;41.240;16.500;2023-09-12T04:04:44;101225.16;;;27.75;44.39
35419;BME280;21525;41.240;16.500;2023-09-12T04:07:10;101224.53;;;27.61;44.58
35419;BME280;21525;41.240;16.500;2023-09-12T04:09:36;101220.84;;;27.62;44.20
35419;BME280;21525;41.240;16.500;2023-09-12T04:12:02;101224.03;;;27.67;44.48
35419;BME280;21525;41.240;16.500;2023-09-12T04:14:28;101224.41;;;27.73;44.51
35419;BME280;21525;41.240;16.500;2023-09-12T04:16:53;101230.97;;;27.69;44.33
35419;BME280;21525;41.240;16.500;2023-09-12T04:19:19;101229.22;;;27.57;44.15
35419;BME280;21525;41.240;16.500;2023-09-12T04:21:45;101224.53;;;27.72;43.95
35419;BME280;21525;41.240;16.500;2023-09-12T04:24:10;101222.31;;;27.66;44.02
35419;BME280;21525;41.240;16.500;2023-09-12T04:26:36;101235.22;;;27.61;44.76
35419;BME280;21525;41.240;16.500;2023-09-12T04:29:02;101229.63;;;27.75;44.25
35419;BME280;21525;41.240;16.500;2023-09-12T04:31:28;101233.50;;;27.71;44.37
35419;BME280;21525;41.240;16.500;2023-09-12T04:33:54;101239.41;;;27.87;44.85
35419;BME280;21525;41.240;16.500;2023-09-12T04:36:20;101236.25;;;27.93;44.76
35419;BME280;21525;41.240;16.500;2023-09-12T04:38:46;101230.63;;;27.96;44.63
35419;BME280;21525;41.240;16.500;2023-09-12T04:41:13;101230.50;;;27.75;44.95
35419;BME280;21525;41.240;16.500;2023-09-12T04:43:43;101239.78;;;28.05;44.29
35419;BME280;21525;41.240;16.500;2023-09-12T04:46:11;101238.94;;;27.93;44.76
35419;BME280;21525;41.240;16.500;2023-09-12T04:48:37;101242.63;;;28.26;44.57
35419;BME280;21525;41.240;16.500;2023-09-12T04:51:04;101241.72;;;28.03;45.47
35419;BME280;21525;41.240;16.500;2023-09-12T04:53:30;101245.25;;;28.15;45.56
35419;BME280;21525;41.240;16.500;2023-09-12T04:56:01;101246.16;;;28.37;45.22
35419;BME280;21525;41.240;16.500;2023-09-12T04:58:28;101244.44;;;28.36;44.98
35419;BME280;21525;41.240;16.500;2023-09-12T05:00:54;101240.56;;;28.40;45.20
35419;BME280;21525;41.240;16.500;2023-09-12T05:03:22;101241.41;;;28.41;44.88
35419;BME280;21525;41.240;16.500;2023-09-12T05:05:48;101242.38;;;28.29;45.46
35419;BME280;21525;41.240;16.500;2023-09-12T05:08:16;101241.47;;;28.06;46.69
35419;BME280;21525;41.240;16.500;2023-09-12T05:10:47;101241.31;;;27.74;46.95
35419;BME280;21525;41.240;16.500;2023-09-12T05:13:13;101250.22;;;29.08;45.22
35419;BME280;21525;41.240;16.500;2023-09-12T05:15:40;101243.50;;;31.38;40.49
35419;BME280;21525;41.240;16.500;2023-09-12T05:18:07;101237.84;;;32.54;37.99
35419;BME280;21525;41.240;16.500;2023-09-12T05:20:33;101236.78;;;33.81;36.35
35419;BME280;21525;41.240;16.500;2023-09-12T05:22:59;101229.56;;;34.42;35.65
35419;BME280;21525;41.240;16.500;2023-09-12T05:25:25;101222.84;;;35.28;34.39
35419;BME280;21525;41.240;16.500;2023-09-12T05:27:52;101223.38;;;35.64;33.93
35419;BME280;21525;41.240;16.500;2023-09-12T05:30:19;101221.31;;;35.75;33.78
35419;BME280;21525;41.240;16.500;2023-09-12T05:32:45;101219.41;;;36.55;32.24
35419;BME280;21525;41.240;16.500;2023-09-12T05:35:11;101215.69;;;36.56;32.58
35419;BME280;21525;41.240;16.500;2023-09-12T05:37:36;101220.03;;;37.42;31.27
35419;BME280;21525;41.240;16.500;2023-09-12T05:40:02;101214.91;;;38.43;30.33
35419;BME280;21525;41.240;16.500;2023-09-12T05:42:29;101218.72;;;39.63;28.49
35419;BME280;21525;41.240;16.500;2023-09-12T05:44:55;101225.78;;;39.86;28.41
35419;BME280;21525;41.240;16.500;2023-09-12T05:47:21;101232.66;;;39.33;28.82
35419;BME280;21525;41.240;16.500;2023-09-12T05:49:47;101230.22;;;39.16;29.36
35419;BME280;21525;41.240;16.500;2023-09-12T05:52:14;101231.59;;;38.40;29.50
35419;BME280;21525;41.240;16.500;2023-09-12T05:54:40;101229.69;;;39.06;28.99
35419;BME280;21525;41.240;16.500;2023-09-12T05:57:07;101226.78;;;39.78;28.42
35419;BME280;21525;41.240;16.500;2023-09-12T05:59:36;101224.13;;;40.19;28.04
35419;BME280;21525;41.240;16.500;2023-09-12T06:02:03;101225.59;;;40.70;27.76
35419;BME280;21525;41.240;16.500;2023-09-12T06:04:29;101221.72;;;41.12;26.95
35419;BME280;21525;41.240;16.500;2023-09-12T06:06:55;101223.47;;;42.50;25.85
35419;BME280;21525;41.240;16.500;2023-09-12T06:09:21;101225.72;;;42.02;26.17
35419;BME280;21525;41.240;16.500;2023-09-12T06:11:47;101226.19;;;41.79;26.52
35419;BME280;21525;41.240;16.500;2023-09-12T06:14:12;101220.88;;;42.62;25.86
35419;BME280;21525;41.240;16.500;2023-09-12T06:16:38;101223.84;;;42.60;25.39
35419;BME280;21525;41.240;16.500;2023-09-12T06:19:04;101219.44;;;43.78;24.49
35419;BME280;21525;41.240;16.500;2023-09-12T06:21:30;101218.41;;;44.16;24.28
35419;BME280;21525;41.240;16.500;2023-09-12T06:24:16;101223.69;;;43.49;24.79
35419;BME280;21525;41.240;16.500;2023-09-12T06:26:42;101223.63;;;43.31;24.82
35419;BME280;21525;41.240;16.500;2023-09-12T06:29:08;101226.50;;;44.59;24.06
35419;BME280;21525;41.240;16.500;2023-09-12T06:31:34;101229.38;;;43.73;24.28
35419;BME280;21525;41.240;16.500;2023-09-12T06:34:01;101230.13;;;43.05;24.78
35419;BME280;21525;41.240;16.500;2023-09-12T06:36:28;101227.94;;;43.88;24.33
35419;BME280;21525;41.240;16.500;2023-09-12T06:38:57;101232.28;;;43.21;25.24
35419;BME280;21525;41.240;16.500;2023-09-12T06:41:23;101238.97;;;43.57;25.09
35419;BME280;21525;41.240;16.500;2023-09-12T06:43:49;101240.34;;;43.73;24.85
35419;BME280;21525;41.240;16.500;2023-09-12T06:46:15;101250.75;;;43.64;25.05
35419;BME280;21525;41.240;16.500;2023-09-12T06:48:45;101252.03;;;44.23;24.27
35419;BME280;21525;41.240;16.500;2023-09-12T06:51:12;101251.59;;;44.44;24.06
35419;BME280;21525;41.240;16.500;2023-09-12T06:53:38;101250.69;;;44.50;24.08
35419;BME280;21525;41.240;16.500;2023-09-12T06:56:04;101261.03;;;44.12;24.05
35419;BME280;21525;41.240;16.500;2023-09-12T06:58:30;101263.53;;;43.70;24.77
35419;BME280;21525;41.240;16.500;2023-09-12T07:01:04;101255.69;;;44.53;25.03
35419;BME280;21525;41.240;16.500;2023-09-12T07:03:32;101261.19;;;42.86;26.67
35419;BME280;21525;41.240;16.500;2023-09-12T07:05:57;101272.09;;;42.41;27.11
35419;BME280;21525;41.240;16.500;2023-09-12T07:08:24;101268.38;;;42.09;27.92
35419;BME280;21525;41.240;16.500;2023-09-12T07:10:49;101269.53;;;40.94;29.23
35419;BME280;21525;41.240;16.500;2023-09-12T07:13:15;101272.59;;;40.72;29.30
35419;BME280;21525;41.240;16.500;2023-09-12T07:15:41;101267.44;;;40.42;29.63
35419;BME280;21525;41.240;16.500;2023-09-12T07:18:07;101278.09;;;39.53;31.39
35419;BME280;21525;41.240;16.500;2023-09-12T07:20:36;101269.59;;;39.42;32.03
35419;BME280;21525;41.240;16.500;2023-09-12T07:23:02;101279.16;;;38.95;31.69
35419;BME280;21525;41.240;16.500;2023-09-12T07:25:27;101285.09;;;39.20;32.27
35419;BME280;21525;41.240;16.500;2023-09-12T07:27:53;101278.50;;;39.29;32.02
35419;BME280;21525;41.240;16.500;2023-09-12T07:30:19;101283.66;;;38.88;32.43
35419;BME280;21525;41.240;16.500;2023-09-12T07:32:45;101285.34;;;38.89;32.64
35419;BME280;21525;41.240;16.500;2023-09-12T07:35:11;101290.44;;;38.18;33.34
35419;BME280;21525;41.240;16.500;2023-09-12T07:37:36;101290.84;;;37.55;34.75
35419;BME280;21525;41.240;16.500;2023-09-12T07:40:02;101296.28;;;38.07;34.52
35419;BME280;21525;41.240;16.500;2023-09-12T07:42:35;101302.34;;;38.17;33.17
35419;BME280;21525;41.240;16.500;2023-09-12T07:45:02;101299.16;;;37.76;34.03
35419;BME280;21525;41.240;16.500;2023-09-12T07:47:28;101297.94;;;36.71;36.02
35419;BME280;21525;41.240;16.500;2023-09-12T07:49:54;101300.38;;;36.50;37.04
35419;BME280;21525;41.240;16.500;2023-09-12T07:52:21;101302.94;;;36.43;37.30
35419;BME280;21525;41.240;16.500;2023-09-12T07:54:49;101302.38;;;36.64;37.25
35419;BME280;21525;41.240;16.500;2023-09-12T07:57:14;101305.72;;;37.05;37.07
35419;BME280;21525;41.240;16.500;2023-09-12T07:59:40;101309.41;;;37.43;36.92
35419;BME280;21525;41.240;16.500;2023-09-12T08:02:06;101307.66;;;37.27;37.54
35419;BME280;21525;41.240;16.500;2023-09-12T08:04:32;101322.84;;;37.06;38.61
35419;BME280;21525;41.240;16.500;2023-09-12T08:06:59;101310.13;;;36.28;39.29
35419;BME280;21525;41.240;16.500;2023-09-12T08:09:49;101317.56;;;36.34;39.51
35419;BME280;21525;41.240;16.500;2023-09-12T08:12:16;101320.59;;;36.07;40.08
35419;BME280;21525;41.240;16.500;2023-09-12T08:14:41;101324.34;;;35.65;41.39
35419;BME280;21525;41.240;16.500;2023-09-12T08:17:09;101318.91;;;35.32;42.60
35419;BME280;21525;41.240;16.500;2023-09-12T08:19:35;101323.00;;;34.94;42.28
35419;BME280;21525;41.240;16.500;2023-09-12T08:22:00;101316.00;;;34.50;43.01
35419;BME280;21525;41.240;16.500;2023-09-12T08:24:26;101327.44;;;34.35;43.32
35419;BME280;21525;41.240;16.500;2023-09-12T08:26:52;101323.94;;;34.43;43.10
35419;BME280;21525;41.240;16.500;2023-09-12T08:29:17;101337.59;;;33.27;47.22
35419;BME280;21525;41.240;16.500;2023-09-12T08:31:43;101327.41;;;32.93;50.25
35419;BME280;21525;41.240;16.500;2023-09-12T08:34:10;101324.72;;;34.69;46.19
35419;BME280;21525;41.240;16.500;2023-09-12T08:36:36;101335.13;;;34.56;47.57
35419;BME280;21525;41.240;16.500;2023-09-12T08:39:01;101334.88;;;33.27;50.52
35419;BME280;21525;41.240;16.500;2023-09-12T08:41:27;101334.53;;;34.36;48.30
35419;BME280;21525;41.240;16.500;2023-09-12T08:43:54;101331.19;;;33.99;48.59
35419;BME280;21525;41.240;16.500;2023-09-12T08:46:22;101341.41;;;32.03;54.83
35419;BME280;21525;41.240;16.500;2023-09-12T08:48:49;101339.44;;;32.62;54.25
35419;BME280;21525;41.240;16.500;2023-09-12T08:51:15;101334.97;;;33.53;51.46
35419;BME280;21525;41.240;16.500;2023-09-12T08:53:41;101336.28;;;33.31;52.23
35419;BME280;21525;41.240;16.500;2023-09-12T08:56:07;101340.53;;;33.33;55.00
35419;BME280;21525;41.240;16.500;2023-09-12T08:58:35;101346.63;;;33.08;53.51
35419;BME280;21525;41.240;16.500;2023-09-12T09:01:02;101335.53;;;33.38;55.21
35419;BME280;21525;41.240;16.500;2023-09-12T09:03:28;101345.09;;;32.78;57.53
35419;BME280;21525;41.240;16.500;2023-09-12T09:05:55;101345.69;;;33.62;54.26
35419;BME280;21525;41.240;16.500;2023-09-12T09:08:22;101339.75;;;33.77;53.64
35419;BME280;21525;41.240;16.500;2023-09-12T09:10:59;101341.41;;;32.60;56.23
35419;BME280;21525;41.240;16.500;2023-09-12T09:13:27;101346.25;;;32.56;57.09
35419;BME280;21525;41.240;16.500;2023-09-12T09:18:58;101345.97;;;31.74;63.80
35419;BME280;21525;41.240;16.500;2023-09-12T09:21:27;101332.63;;;32.11;65.24
35419;BME280;21525;41.240;16.500;2023-09-12T09:23:59;101338.81;;;32.41;63.19
35419;BME280;21525;41.240;16.500;2023-09-12T09:26:25;101345.09;;;32.68;63.65
35419;BME280;21525;41.240;16.500;2023-09-12T09:29:20;101344.53;;;32.65;62.89
35419;BME280;21525;41.240;16.500;2023-09-12T09:31:49;101341.22;;;33.35;61.94
35419;BME280;21525;41.240;16.500;2023-09-12T09:34:19;101341.78;;;32.37;64.42
35419;BME280;21525;41.240;16.500;2023-09-12T09:36:49;101336.25;;;32.49;66.07
35419;BME280;21525;41.240;16.500;2023-09-12T09:39:17;101341.84;;;32.75;63.24
35419;BME280;21525;41.240;16.500;2023-09-12T09:41:47;101344.63;;;33.73;59.44
35419;BME280;21525;41.240;16.500;2023-09-12T09:44:13;101338.38;;;33.55;58.96
35419;BME280;21525;41.240;16.500;2023-09-12T09:46:43;101343.75;;;33.37;59.76
35419;BME280;21525;41.240;16.500;2023-09-12T09:49:14;101340.84;;;32.76;60.93
35419;BME280;21525;41.240;16.500;2023-09-12T09:51:41;101343.13;;;32.61;61.98
35419;BME280;21525;41.240;16.500;2023-09-12T09:54:08;101346.50;;;31.39;65.77
35419;BME280;21525;41.240;16.500;2023-09-12T09:56:47;101341.25;;;32.81;63.69
35419;BME280;21525;41.240;16.500;2023-09-12T09:59:19;101344.97;;;31.94;64.90
35419;BME280;21525;41.240;16.500;2023-09-12T10:01:48;101337.75;;;33.43;60.26
35419;BME280;21525;41.240;16.500;2023-09-12T10:04:15;101336.66;;;33.54;58.95
35419;BME280;21525;41.240;16.500;2023-09-12T10:06:43;101338.00;;;32.67;60.06
35419;BME280;21525;41.240;16.500;2023-09-12T10:09:11;101343.81;;;31.87;62.34
35419;BME280;21525;41.240;16.500;2023-09-12T10:11:39;101333.88;;;32.36;66.70
35419;BME280;21525;41.240;16.500;2023-09-12T10:14:06;101330.66;;;32.97;63.63
35419;BME280;21525;41.240;16.500;2023-09-12T10:16:39;101336.16;;;31.34;64.34
35419;BME280;21525;41.240;16.500;2023-09-12T10:19:15;101330.34;;;33.27;58.36
35419;BME280;21525;41.240;16.500;2023-09-12T10:24:45;101330.91;;;31.33;67.30
35419;BME280;21525;41.240;16.500;2023-09-12T10:27:12;101317.28;;;33.23;60.60
35419;BME280;21525;41.240;16.500;2023-09-12T10:29:39;101316.72;;;32.37;63.21
35419;BME280;21525;41.240;16.500;2023-09-12T10:32:05;101316.94;;;30.99;61.88
35419;BME280;21525;41.240;16.500;2023-09-12T10:34:32;101313.94;;;32.56;62.21
35419;BME280;21525;41.240;16.500;2023-09-12T10:36:59;101305.44;;;32.51;64.69
35419;BME280;21525;41.240;16.500;2023-09-12T10:39:31;101308.09;;;32.24;66.43
35419;BME280;21525;41.240;16.500;2023-09-12T10:41:58;101308.69;;;31.31;70.21
35419;BME280;21525;41.240;16.500;2023-09-12T10:44:25;101310.72;;;31.48;67.20
35419;BME280;21525;41.240;16.500;2023-09-12T10:46:52;101306.22;;;32.81;61.57
35419;BME280;21525;41.240;16.500;2023-09-12T10:49:22;101304.75;;;31.64;67.67
35419;BME280;21525;41.240;16.500;2023-09-12T10:51:48;101293.97;;;32.12;62.63
35419;BME280;21525;41.240;16.500;2023-09-12T10:54:26;101296.31;;;32.71;61.08
35419;BME280;21525;41.240;16.500;2023-09-12T10:59:30;101292.00;;;31.85;65.69
35419;BME280;21525;41.240;16.500;2023-09-12T11:05:02;101286.09;;;30.84;67.22
35419;BME280;21525;41.240;16.500;2023-09-12T11:10:17;101284.09;;;31.64;65.19
35419;BME280;21525;41.240;16.500;2023-09-12T11:12:48;101285.41;;;32.36;59.97
35419;BME280;21525;41.240;16.500;2023-09-12T11:15:14;101276.59;;;32.71;60.86
35419;BME280;21525;41.240;16.500;2023-09-12T11:17:41;101284.16;;;31.05;67.43
35419;BME280;21525;41.240;16.500;2023-09-12T11:20:08;101276.97;;;32.12;66.36
35419;BME280;21525;41.240;16.500;2023-09-12T11:22:44;101279.75;;;30.85;69.16
35419;BME280;21525;41.240;16.500;2023-09-12T11:30:28;101274.66;;;32.26;61.89
35419;BME280;21525;41.240;16.500;2023-09-12T11:32:57;101256.19;;;31.65;65.87
35419;BME280;21525;41.240;16.500;2023-09-12T11:35:29;101265.56;;;31.13;67.06
35419;BME280;21525;41.240;16.500;2023-09-12T11:38:01;101269.03;;;31.04;68.63
35419;BME280;21525;41.240;16.500;2023-09-12T11:43:00;101267.97;;;32.67;58.00
35419;BME280;21525;41.240;16.500;2023-09-12T11:45:27;101265.75;;;32.26;60.88
35419;BME280;21525;41.240;16.500;2023-09-12T11:47:54;101250.81;;;31.85;62.69
35419;BME280;21525;41.240;16.500;2023-09-12T11:53:04;101264.44;;;31.45;61.33
35419;BME280;21525;41.240;16.500;2023-09-12T11:55:31;101259.72;;;31.08;67.29
35419;BME280;21525;41.240;16.500;2023-09-12T11:57:58;101256.44;;;30.24;69.93
35419;BME280;21525;41.240;16.500;2023-09-12T12:00:23;101250.97;;;30.56;70.25
35419;BME280;21525;41.240;16.500;2023-09-12T12:02:53;101267.28;;;30.13;67.24
35419;BME280;21525;41.240;16.500;2023-09-12T12:05:18;101251.28;;;31.13;68.67
35419;BME280;21525;41.240;16.500;2023-09-12T12:07:44;101242.63;;;30.29;71.67
35419;BME280;21525;41.240;16.500;2023-09-12T12:10:13;101245.81;;;30.84;69.99
35419;BME280;21525;41.240;16.500;2023-09-12T12:12:39;101245.28;;;31.86;64.37
35419;BME280;21525;41.240;16.500;2023-09-12T12:15:09;101243.91;;;31.24;67.11
35419;BME280;21525;41.240;16.500;2023-09-12T12:17:37;101245.03;;;31.60;64.83
35419;BME280;21525;41.240;16.500;2023-09-12T12:20:10;101245.31;;;31.28;68.99
35419;BME280;21525;41.240;16.500;2023-09-12T12:22:40;101238.25;;;31.27;66.37
35419;BME280;21525;41.240;16.500;2023-09-12T12:25:09;101249.78;;;29.98;73.52
35419;BME280;21525;41.240;16.500;2023-09-12T12:27:39;101248.69;;;30.52;74.07
35419;BME280;21525;41.240;16.500;2023-09-12T12:30:11;101233.09;;;31.92;68.04
35419;BME280;21525;41.240;16.500;2023-09-12T12:32:41;101243.59;;;31.08;70.14
35419;BME280;21525;41.240;16.500;2023-09-12T12:35:08;101236.25;;;31.20;70.82
35419;BME280;21525;41.240;16.500;2023-09-12T12:37:36;101241.09;;;30.36;74.75
35419;BME280;21525;41.240;16.500;2023-09-12T12:40:02;101243.53;;;30.89;72.09
35419;BME280;21525;41.240;16.500;2023-09-12T12:42:37;101228.56;;;29.85;75.96
35419;BME280;21525;41.240;16.500;2023-09-12T12:45:14;101241.44;;;30.83;75.41
35419;BME280;21525;41.240;16.500;2023-09-12T12:47:40;101237.53;;;30.56;77.37
35419;BME280;21525;41.240;16.500;2023-09-12T12:50:16;101240.22;;;31.64;71.11
35419;BME280;21525;41.240;16.500;2023-09-12T12:52:47;101241.44;;;30.83;73.75
35419;BME280;21525;41.240;16.500;2023-09-12T12:55:13;101227.47;;;31.08;68.96
35419;BME280;21525;41.240;16.500;2023-09-12T12:57:41;101238.13;;;31.38;68.15
35419;BME280;21525;41.240;16.500;2023-09-12T13:00:09;101244.75;;;31.54;66.18
35419;BME280;21525;41.240;16.500;2023-09-12T13:02:40;101237.34;;;31.94;65.86
35419;BME280;21525;41.240;16.500;2023-09-12T13:05:27;101238.22;;;31.08;71.73
35419;BME280;21525;41.240;16.500;2023-09-12T13:07:54;101235.91;;;32.00;67.98